Terminal Aerodrome Forecast
Issued by NWS State College, PA

Home | Current Version | Previous Version | Text Only | Print | Product List | Glossary On
Versions: 1 2 3 4 5 6 7 8 9 10 11 12 13 14 15 16 17 18 19 20 21 22 23 24 25 26 27 28 29 30 31 32 33 34 35 36 37 38 39 40
000
FTUS41 KCTP 050559
TAFMDT
TAF
KMDT 050559Z 0506/0606 09004KT 6SM BR OVC015
     FM050800 08004KT 5SM BR OVC008
     FM051300 05007KT P6SM OVC015
     FM051600 03007KT P6SM OVC025=

USA.gov is the U.S. government's official web portal to all federal, state and local government web resources and services.